createdAt,value
2017-11-16T00:00:39.001Z,79.33
2017-11-16T00:01:42.835Z,78.90
2017-11-16T00:02:46.681Z,78.50
2017-11-16T00:03:50.463Z,77.88
2017-11-16T00:04:54.237Z,78.38
2017-11-16T00:05:59.151Z,78.41
2017-11-16T00:07:02.970Z,78.80
2017-11-16T00:08:07.251Z,79.82
2017-11-16T00:09:11.598Z,80.77
2017-11-16T00:10:15.384Z,81.63
2017-11-16T00:11:19.163Z,82.09
2017-11-16T00:12:23.246Z,82.33
2017-11-16T00:13:27.234Z,82.24
2017-11-16T00:14:31.083Z,81.78
2017-11-16T00:15:34.772Z,81.09
2017-11-16T00:16:38.463Z,81.65
2017-11-16T00:17:42.146Z,82.54
2017-11-16T00:18:46.150Z,83.03
2017-11-16T00:19:49.792Z,83.06
2017-11-16T00:20:53.501Z,82.89
2017-11-16T00:21:57.135Z,83.16
2017-11-16T00:23:00.805Z,83.67
2017-11-16T00:24:05.139Z,83.62
2017-11-16T00:25:09.078Z,83.90
2017-11-16T00:26:12.653Z,84.11
2017-11-16T00:27:16.182Z,84.11
2017-11-16T00:28:19.818Z,84.08
2017-11-16T00:29:23.518Z,83.82
2017-11-16T00:30:27.199Z,84.12
2017-11-16T00:31:31.108Z,84.14
2017-11-16T00:32:34.789Z,84.14
2017-11-16T00:33:38.456Z,83.72
2017-11-16T00:34:42.079Z,83.66
2017-11-16T00:35:45.764Z,83.89
2017-11-16T00:36:49.445Z,84.38
2017-11-16T00:37:53.371Z,84.42
2017-11-16T00:38:57.566Z,84.07
2017-11-16T00:40:01.257Z,84.02
2017-11-16T00:41:05.292Z,83.63
2017-11-16T00:42:09.012Z,83.38
2017-11-16T00:43:12.773Z,82.97
2017-11-16T00:44:17.029Z,82.91
2017-11-16T00:45:20.690Z,82.46
2017-11-16T00:46:24.349Z,81.94
2017-11-16T00:47:28.171Z,81.55
2017-11-16T00:48:31.946Z,80.79
2017-11-16T00:49:36.027Z,81.12
2017-11-16T00:50:39.780Z,80.87
2017-11-16T00:51:43.568Z,80.35
2017-11-16T00:52:47.355Z,80.58
2017-11-16T00:53:51.050Z,80.10
2017-11-16T00:54:54.726Z,80.52
2017-11-16T00:55:58.672Z,80.61
2017-11-16T00:57:02.392Z,80.57
2017-11-16T00:58:06.195Z,80.70
2017-11-16T00:59:09.939Z,81.26
2017-11-16T01:00:13.734Z,81.66
2017-11-16T01:01:17.496Z,82.11
2017-11-16T01:02:21.529Z,82.31
2017-11-16T01:03:25.347Z,82.55
2017-11-16T01:04:29.114Z,82.56
2017-11-16T01:05:32.872Z,82.43
2017-11-16T01:06:36.619Z,82.26
2017-11-16T01:07:40.409Z,82.05
2017-11-16T01:08:44.367Z,81.78
2017-11-16T01:09:48.080Z,81.89
2017-11-16T01:10:51.667Z,82.18
2017-11-16T01:11:55.212Z,82.43
2017-11-16T01:12:58.867Z,82.67
2017-11-16T01:14:02.456Z,83.00
2017-11-16T01:15:07.399Z,83.30
2017-11-16T01:16:11.270Z,82.51
2017-11-16T01:17:14.925Z,82.86
2017-11-16T01:18:18.508Z,83.77
2017-11-16T01:19:22.093Z,83.89
2017-11-16T01:20:25.638Z,83.80
2017-11-16T01:21:29.513Z,83.22
2017-11-16T01:22:33.110Z,82.97
2017-11-16T01:23:36.679Z,82.14
2017-11-16T01:24:40.255Z,82.57
2017-11-16T01:25:43.852Z,83.22
2017-11-16T01:26:47.420Z,83.35
2017-11-16T01:27:51.445Z,82.94
2017-11-16T01:28:55.116Z,82.78
2017-11-16T01:29:58.805Z,82.61
2017-11-16T01:31:02.522Z,82.06
2017-11-16T01:32:06.328Z,81.99
2017-11-16T01:33:10.002Z,81.90
2017-11-16T01:34:13.995Z,83.00
2017-11-16T01:35:17.788Z,83.26
2017-11-16T01:36:21.516Z,83.18
2017-11-16T01:37:25.344Z,83.23
2017-11-16T01:38:29.075Z,83.21
2017-11-16T01:39:32.895Z,83.32
2017-11-16T01:40:36.906Z,83.35
2017-11-16T01:41:40.567Z,83.62
2017-11-16T01:42:44.258Z,84.10
2017-11-16T01:43:47.923Z,83.62
2017-11-16T01:44:51.479Z,84.03
2017-11-16T01:45:55.108Z,83.89
2017-11-16T01:46:58.958Z,83.56
2017-11-16T01:48:02.531Z,83.64
2017-11-16T01:49:06.076Z,83.87
2017-11-16T01:50:09.546Z,84.05
2017-11-16T01:51:13.902Z,84.12
2017-11-16T01:52:17.488Z,84.17
2017-11-16T01:53:21.403Z,84.68
2017-11-16T01:54:30.180Z,84.72
2017-11-16T01:55:33.701Z,84.93
2017-11-16T01:56:37.264Z,85.03
2017-11-16T01:57:40.842Z,84.59
2017-11-16T01:58:44.622Z,84.04
2017-11-16T01:59:48.525Z,83.42
2017-11-16T02:15:50.099Z,89.57
2017-11-16T02:16:53.827Z,88.26
2017-11-16T02:17:57.526Z,87.07
2017-11-16T02:19:01.308Z,86.09
2017-11-16T02:20:05.293Z,85.48
2017-11-16T02:21:09.401Z,84.74
2017-11-16T02:22:13.323Z,84.54
2017-11-16T02:23:17.097Z,84.39
2017-11-16T02:24:20.892Z,84.42
2017-11-16T02:25:24.648Z,84.32
2017-11-16T02:26:28.857Z,84.54
2017-11-16T02:27:32.931Z,84.53
2017-11-16T02:28:36.714Z,84.18
2017-11-16T02:29:40.635Z,84.29
2017-11-16T02:30:44.258Z,84.37
2017-11-16T02:31:47.921Z,84.16
2017-11-16T02:32:51.583Z,83.95
2017-11-16T02:33:55.525Z,83.87
2017-11-16T02:34:59.191Z,84.41
2017-11-16T02:36:02.856Z,84.80
2017-11-16T02:37:06.459Z,84.68
2017-11-16T02:38:10.097Z,84.61
2017-11-16T02:39:13.782Z,84.33
2017-11-16T02:40:17.781Z,84.21
2017-11-16T02:41:21.496Z,84.29
2017-11-16T02:42:25.174Z,84.01
2017-11-16T02:43:28.846Z,84.26
2017-11-16T02:44:32.614Z,84.14
2017-11-16T02:45:36.285Z,83.99
2017-11-16T02:46:40.220Z,84.15
2017-11-16T02:47:44.005Z,84.32
2017-11-16T02:48:47.693Z,84.09
2017-11-16T02:49:51.373Z,84.17
2017-11-16T02:50:55.139Z,84.06
2017-11-16T02:51:58.923Z,84.34
2017-11-16T02:53:02.981Z,84.49
2017-11-16T02:54:06.738Z,84.36
2017-11-16T02:55:10.463Z,83.96
2017-11-16T02:56:14.239Z,83.70
2017-11-16T02:57:18.342Z,84.16
2017-11-16T02:58:22.114Z,84.16
2017-11-16T02:59:26.238Z,84.02
2017-11-16T03:00:30.046Z,83.26
2017-11-16T03:01:33.836Z,82.66
2017-11-16T03:02:37.629Z,83.14
2017-11-16T03:03:41.345Z,83.52
2017-11-16T03:04:44.974Z,83.60
2017-11-16T03:05:48.904Z,83.70
2017-11-16T03:06:52.548Z,83.82
2017-11-16T03:07:56.193Z,83.86
2017-11-16T03:08:59.942Z,83.80
2017-11-16T03:10:03.871Z,84.01
2017-11-16T03:11:07.687Z,84.21
2017-11-16T03:12:11.626Z,84.24
2017-11-16T03:13:15.246Z,84.29
2017-11-16T03:14:19.445Z,84.40
2017-11-16T03:15:23.069Z,84.80
2017-11-16T03:16:26.753Z,84.87
2017-11-16T03:17:30.402Z,84.93
2017-11-16T03:18:34.308Z,84.60
2017-11-16T03:19:37.934Z,84.14
2017-11-16T03:20:41.599Z,84.42
2017-11-16T03:21:45.374Z,84.22
2017-11-16T03:22:49.183Z,84.05
2017-11-16T03:23:52.971Z,83.82
2017-11-16T03:24:57.092Z,83.84
2017-11-16T03:26:00.881Z,83.66
2017-11-16T03:27:04.670Z,83.49
2017-11-16T03:28:08.452Z,83.50
2017-11-16T03:29:12.207Z,84.02
2017-11-16T03:30:15.964Z,83.80
2017-11-16T03:31:20.002Z,84.31
2017-11-16T03:32:23.629Z,84.45
2017-11-16T03:33:27.269Z,83.98
2017-11-16T03:34:31.798Z,84.00
2017-11-16T03:35:35.558Z,84.24
2017-11-16T03:36:39.433Z,84.80
2017-11-16T03:37:44.133Z,84.89
2017-11-16T03:38:47.971Z,84.70
2017-11-16T03:39:51.772Z,84.31
2017-11-16T03:40:55.587Z,84.36
2017-11-16T03:41:59.344Z,83.86
2017-11-16T03:43:03.013Z,84.69
2017-11-16T03:44:06.970Z,84.74
2017-11-16T03:45:10.644Z,84.94
2017-11-16T03:46:14.317Z,85.24
2017-11-16T03:47:18.021Z,85.80
2017-11-16T03:48:21.716Z,86.05
2017-11-16T03:49:25.384Z,86.01
2017-11-16T03:50:29.349Z,85.93
2017-11-16T03:51:33.022Z,85.72
2017-11-16T03:52:37.270Z,85.64
2017-11-16T03:53:41.006Z,85.50
2017-11-16T03:54:44.796Z,85.45
2017-11-16T03:55:48.641Z,85.72
2017-11-16T03:56:52.667Z,85.87
2017-11-16T03:57:56.434Z,85.96
2017-11-16T03:59:00.254Z,85.91
2017-11-16T04:00:04.044Z,85.71
2017-11-16T04:01:08.001Z,85.22
2017-11-16T04:02:11.787Z,85.30
2017-11-16T04:03:15.827Z,85.22
2017-11-16T04:04:19.681Z,85.53
2017-11-16T04:05:23.436Z,85.36
2017-11-16T04:06:27.202Z,85.74
2017-11-16T04:07:31.439Z,85.61
2017-11-16T04:08:35.212Z,85.27
2017-11-16T04:09:39.378Z,85.51
2017-11-16T04:10:43.127Z,85.86
2017-11-16T04:11:46.941Z,86.28
2017-11-16T04:12:50.831Z,86.18
2017-11-16T04:13:54.569Z,86.19
2017-11-16T04:14:58.351Z,85.96
2017-11-16T04:16:02.462Z,86.04
2017-11-16T04:17:06.317Z,86.22
2017-11-16T04:18:10.092Z,86.31
2017-11-16T04:19:13.877Z,86.40
2017-11-16T04:20:17.672Z,86.28
2017-11-16T04:21:21.472Z,86.01
2017-11-16T04:22:25.628Z,85.60
2017-11-16T04:23:29.404Z,85.48
2017-11-16T04:24:33.162Z,85.29
2017-11-16T04:25:36.972Z,85.21
2017-11-16T04:26:40.717Z,85.06
2017-11-16T04:27:44.536Z,85.74
2017-11-16T04:28:48.644Z,86.96
2017-11-16T04:29:52.440Z,87.09
2017-11-16T04:30:56.239Z,87.13
2017-11-16T04:32:00.041Z,87.45
2017-11-16T04:33:03.810Z,87.63
2017-11-16T04:34:07.537Z,87.37
2017-11-16T04:35:11.589Z,87.24
2017-11-16T04:36:15.369Z,87.09
2017-11-16T04:37:19.076Z,87.21
2017-11-16T04:38:22.809Z,87.24
2017-11-16T04:39:26.418Z,86.96
2017-11-16T04:40:30.040Z,86.25
2017-11-16T04:41:34.304Z,86.05
2017-11-16T04:42:39.313Z,86.19
2017-11-16T04:43:42.940Z,86.08
2017-11-16T04:44:46.569Z,86.75
2017-11-16T04:45:50.255Z,86.87
2017-11-16T04:46:54.017Z,86.76
2017-11-16T04:47:58.093Z,86.60
2017-11-16T04:49:01.914Z,86.04
2017-11-16T04:50:05.680Z,85.63
2017-11-16T04:51:09.934Z,85.38
2017-11-16T04:52:14.342Z,84.91
2017-11-16T04:53:18.128Z,84.64
2017-11-16T04:54:22.253Z,84.00
2017-11-16T04:55:26.074Z,84.73
2017-11-16T04:56:29.872Z,85.08
2017-11-16T04:57:33.749Z,84.89
2017-11-16T04:58:37.548Z,84.79
2017-11-16T04:59:41.302Z,85.46
2017-11-16T05:15:12.785Z,92.17
2017-11-16T05:16:16.563Z,91.47
2017-11-16T05:17:20.438Z,90.19
2017-11-16T05:18:24.216Z,89.13
2017-11-16T05:19:28.036Z,88.62
2017-11-16T05:20:32.171Z,88.42
2017-11-16T05:21:35.986Z,87.79
2017-11-16T05:22:39.756Z,87.48
2017-11-16T05:23:43.572Z,86.74
2017-11-16T05:24:47.392Z,85.98
2017-11-16T05:25:51.154Z,85.68
2017-11-16T05:26:55.260Z,85.55
2017-11-16T05:27:58.861Z,85.69
2017-11-16T05:29:02.497Z,85.57
2017-11-16T05:30:06.917Z,85.80
2017-11-16T05:31:10.761Z,85.83
2017-11-16T05:32:14.457Z,85.72
2017-11-16T05:33:18.400Z,85.98
2017-11-16T05:34:22.374Z,86.19
2017-11-16T05:35:26.098Z,86.07
2017-11-16T05:36:29.771Z,85.47
2017-11-16T05:37:33.420Z,84.95
2017-11-16T05:38:37.099Z,84.66
2017-11-16T05:39:41.608Z,84.89
2017-11-16T05:40:45.308Z,85.05
2017-11-16T05:41:49.107Z,85.23
2017-11-16T05:42:52.858Z,86.02
2017-11-16T05:43:56.623Z,86.30
2017-11-16T05:45:00.473Z,86.53
2017-11-16T05:46:04.731Z,86.26
2017-11-16T05:47:08.593Z,86.12
2017-11-16T05:48:12.380Z,85.74
2017-11-16T05:49:16.128Z,85.97
2017-11-16T05:50:20.027Z,86.31
2017-11-16T05:51:23.767Z,86.47
2017-11-16T05:52:27.898Z,86.42
2017-11-16T05:53:31.741Z,86.21
2017-11-16T05:54:35.531Z,86.18
2017-11-16T05:55:39.337Z,85.84
2017-11-16T05:56:43.098Z,85.81
2017-11-16T05:57:46.934Z,85.83
2017-11-16T05:58:51.028Z,86.64
2017-11-16T05:59:54.803Z,87.09
2017-11-16T06:00:58.583Z,87.40
2017-11-16T06:02:02.346Z,87.42
2017-11-16T06:03:06.179Z,87.00
2017-11-16T06:04:09.981Z,86.75
2017-11-16T06:05:14.487Z,85.88
2017-11-16T06:06:18.275Z,85.45
2017-11-16T06:07:22.113Z,85.77
2017-11-16T06:08:25.999Z,86.63
2017-11-16T06:09:29.783Z,86.68
2017-11-16T06:10:33.560Z,87.04
2017-11-16T06:11:38.496Z,87.28
2017-11-16T06:12:42.283Z,87.00
2017-11-16T06:13:46.161Z,86.68
2017-11-16T06:14:49.910Z,86.53
2017-11-16T06:15:54.574Z,86.50
2017-11-16T06:16:58.387Z,86.30
2017-11-16T06:18:02.411Z,86.06
2017-11-16T06:19:06.109Z,85.93
2017-11-16T06:20:09.834Z,85.62
2017-11-16T06:21:13.528Z,85.99
2017-11-16T06:22:17.409Z,86.02
2017-11-16T06:23:21.141Z,86.39
2017-11-16T06:24:25.228Z,86.71
2017-11-16T06:25:29.166Z,86.87
2017-11-16T06:26:32.942Z,87.00
2017-11-16T06:27:36.724Z,87.00
2017-11-16T06:28:40.533Z,87.06
2017-11-16T06:29:44.392Z,86.91
2017-11-16T06:30:48.627Z,87.09
2017-11-16T06:31:52.414Z,87.07
2017-11-16T06:32:56.266Z,86.92
2017-11-16T06:34:00.026Z,86.76
2017-11-16T06:35:03.730Z,86.56
2017-11-16T06:36:08.263Z,86.63
2017-11-16T06:37:12.336Z,86.46
2017-11-16T06:38:17.023Z,86.36
2017-11-16T06:39:20.727Z,86.88
2017-11-16T06:40:24.656Z,87.02
2017-11-16T06:41:28.583Z,86.88
2017-11-16T06:42:32.751Z,86.93
2017-11-16T06:43:37.048Z,86.86
2017-11-16T06:44:40.974Z,86.72
2017-11-16T06:45:44.823Z,86.51
2017-11-16T06:46:48.675Z,86.41
2017-11-16T06:47:52.550Z,86.07
2017-11-16T06:48:56.446Z,86.45
2017-11-16T06:50:00.863Z,86.70
2017-11-16T06:51:06.561Z,86.71
2017-11-16T06:52:10.465Z,87.12
2017-11-16T06:53:14.270Z,87.24
2017-11-16T06:54:19.044Z,87.84
2017-11-16T06:55:22.964Z,88.49
2017-11-16T06:56:27.205Z,88.93
2017-11-16T06:57:31.372Z,89.15
2017-11-16T06:58:35.183Z,88.82
2017-11-16T06:59:39.946Z,88.38
2017-11-16T07:00:44.025Z,87.92
2017-11-16T07:01:47.840Z,88.30
2017-11-16T07:02:52.331Z,88.53
2017-11-16T07:03:57.324Z,88.58
2017-11-16T07:05:02.059Z,88.67
2017-11-16T07:06:06.099Z,88.44
2017-11-16T07:07:11.598Z,88.60
2017-11-16T07:08:15.408Z,88.57
2017-11-16T07:09:20.135Z,88.64
2017-11-16T07:10:24.056Z,88.54
2017-11-16T07:11:27.931Z,88.43
2017-11-16T07:12:31.742Z,88.65
2017-11-16T07:13:35.543Z,88.55
2017-11-16T07:14:39.310Z,89.13
2017-11-16T07:15:43.473Z,89.47
2017-11-16T07:16:47.285Z,89.66
2017-11-16T07:17:51.051Z,89.97
2017-11-16T07:18:54.867Z,90.24
2017-11-16T07:19:58.662Z,90.07
2017-11-16T07:21:02.483Z,90.14
2017-11-16T07:22:06.879Z,90.04
2017-11-16T07:23:10.693Z,90.48
2017-11-16T07:24:14.360Z,90.39
2017-11-16T07:25:18.097Z,89.97
2017-11-16T07:26:21.825Z,89.98
2017-11-16T07:27:25.591Z,90.10
2017-11-16T07:28:29.573Z,90.12
2017-11-16T07:29:33.403Z,90.01
2017-11-16T07:30:37.255Z,89.45
2017-11-16T07:31:41.288Z,89.37
2017-11-16T07:32:45.136Z,88.91
2017-11-16T07:33:49.178Z,89.67
2017-11-16T07:34:54.034Z,90.12
2017-11-16T07:35:57.883Z,90.01
2017-11-16T07:37:01.631Z,89.92
2017-11-16T07:38:05.522Z,89.50
2017-11-16T07:39:09.250Z,89.15
2017-11-16T07:40:12.988Z,89.59
2017-11-16T07:41:17.083Z,89.63
2017-11-16T07:42:20.879Z,90.07
2017-11-16T07:43:24.707Z,89.78
2017-11-16T07:44:28.580Z,90.07
2017-11-16T07:45:32.437Z,89.96
2017-11-16T07:46:36.244Z,89.92
2017-11-16T07:47:40.719Z,90.15
2017-11-16T07:48:45.180Z,90.13
2017-11-16T07:49:49.211Z,90.20
2017-11-16T07:50:53.465Z,90.22
2017-11-16T07:51:57.486Z,89.70
2017-11-16T07:53:01.675Z,89.44
2017-11-16T07:54:05.926Z,89.34
2017-11-16T07:55:09.753Z,88.61
2017-11-16T07:56:13.763Z,89.19
2017-11-16T07:57:17.813Z,89.85
2017-11-16T07:58:21.663Z,90.08
2017-11-16T07:59:25.463Z,89.41
2017-11-16T08:00:29.759Z,89.15
2017-11-16T08:01:33.612Z,89.25
2017-11-16T08:02:37.432Z,88.50
2017-11-16T08:03:41.214Z,89.00
2017-11-16T08:04:47.064Z,88.96
2017-11-16T08:05:50.848Z,88.88
2017-11-16T08:06:55.048Z,89.25
2017-11-16T08:07:58.860Z,89.56
2017-11-16T08:09:02.658Z,89.46
2017-11-16T08:10:06.450Z,89.05
2017-11-16T08:11:10.252Z,88.86
2017-11-16T08:12:14.100Z,88.40
2017-11-16T08:13:18.211Z,88.49
2017-11-16T08:14:22.023Z,88.67
2017-11-16T08:30:03.296Z,96.22
2017-11-16T08:31:07.114Z,95.49
2017-11-16T08:32:11.153Z,94.53
2017-11-16T08:33:14.971Z,93.93
2017-11-16T08:34:18.815Z,92.51
2017-11-16T08:35:23.066Z,92.33
2017-11-16T08:36:26.920Z,92.16
2017-11-16T08:37:30.740Z,91.86
2017-11-16T08:38:34.570Z,91.31
2017-11-16T08:39:38.401Z,91.01
2017-11-16T08:40:42.232Z,90.20
2017-11-16T08:41:46.346Z,90.35
2017-11-16T08:42:50.068Z,90.21
2017-11-16T08:43:53.850Z,90.15
2017-11-16T08:44:57.607Z,90.34
2017-11-16T08:46:01.330Z,90.29
2017-11-16T08:47:05.105Z,90.17
2017-11-16T08:48:09.903Z,90.16
2017-11-16T08:49:13.748Z,90.64
2017-11-16T08:50:17.647Z,90.86
2017-11-16T08:51:21.395Z,90.89
2017-11-16T08:52:25.343Z,90.83
2017-11-16T08:53:29.085Z,90.65
2017-11-16T08:54:33.203Z,90.59
2017-11-16T08:55:36.971Z,90.14
2017-11-16T08:56:40.799Z,89.36
2017-11-16T08:57:44.648Z,89.90
2017-11-16T08:58:48.752Z,90.09
2017-11-16T08:59:52.551Z,90.20
2017-11-16T09:00:56.849Z,89.94
2017-11-16T09:02:00.765Z,89.53
2017-11-16T09:03:04.932Z,89.41
2017-11-16T09:04:08.840Z,89.36
2017-11-16T09:05:12.956Z,89.27
2017-11-16T09:06:16.909Z,89.31
2017-11-16T09:07:21.108Z,89.40
2017-11-16T09:08:24.937Z,89.42
2017-11-16T09:09:28.767Z,89.36
2017-11-16T09:10:32.661Z,89.33
2017-11-16T09:11:37.055Z,89.74
2017-11-16T09:12:40.858Z,90.11
2017-11-16T09:13:45.049Z,90.07
2017-11-16T09:14:48.850Z,89.69
2017-11-16T09:15:52.677Z,89.79
2017-11-16T09:16:58.359Z,89.65
2017-11-16T09:18:02.757Z,89.94
2017-11-16T09:19:06.916Z,89.64
2017-11-16T09:20:11.417Z,89.32
2017-11-16T09:21:15.380Z,89.71
2017-11-16T09:22:19.258Z,88.89
2017-11-16T09:23:23.673Z,89.30
2017-11-16T09:24:27.471Z,89.51
2017-11-16T09:25:32.054Z,88.96
2017-11-16T09:26:36.357Z,89.19
2017-11-16T09:27:40.179Z,89.55
2017-11-16T09:28:44.176Z,89.35
2017-11-16T09:29:48.044Z,89.30
2017-11-16T09:30:51.844Z,89.58
2017-11-16T09:31:55.858Z,89.39
2017-11-16T09:33:00.076Z,89.14
2017-11-16T09:34:04.293Z,89.41
2017-11-16T09:35:08.124Z,89.09
2017-11-16T09:36:11.939Z,88.54
2017-11-16T09:37:15.747Z,88.51
2017-11-16T09:38:19.763Z,88.61
2017-11-16T09:39:24.009Z,87.75
2017-11-16T09:40:27.840Z,87.39
2017-11-16T09:41:31.731Z,86.59
2017-11-16T09:42:35.572Z,86.37
2017-11-16T09:43:39.222Z,87.07
2017-11-16T09:44:42.925Z,87.17
2017-11-16T09:45:46.974Z,87.13
2017-11-16T09:46:50.759Z,86.88
2017-11-16T09:47:54.613Z,86.83
2017-11-16T09:48:58.477Z,86.41
2017-11-16T09:50:02.279Z,86.38
2017-11-16T09:51:06.036Z,86.36
2017-11-16T09:52:11.706Z,85.82
2017-11-16T09:53:15.568Z,85.90
2017-11-16T09:54:19.526Z,86.86
2017-11-16T09:55:23.429Z,86.99
2017-11-16T09:56:27.410Z,86.74
2017-11-16T09:57:31.259Z,86.76
2017-11-16T09:58:35.370Z,86.66
2017-11-16T09:59:39.203Z,86.72
2017-11-16T10:00:43.109Z,85.89
2017-11-16T10:01:46.934Z,86.34
2017-11-16T10:02:50.773Z,86.87
2017-11-16T10:03:54.876Z,86.28
2017-11-16T10:04:58.717Z,86.38
2017-11-16T10:06:07.976Z,86.15
2017-11-16T10:07:11.875Z,85.96
2017-11-16T10:08:23.137Z,85.04
2017-11-16T10:09:39.466Z,84.38
2017-11-16T10:10:43.381Z,83.84
2017-11-16T10:11:47.200Z,83.75
2017-11-16T10:12:51.023Z,83.97
2017-11-16T10:13:54.884Z,84.09
2017-11-16T10:14:58.724Z,84.13
2017-11-16T10:16:03.069Z,83.78
2017-11-16T10:17:06.882Z,83.64
2017-11-16T10:18:11.176Z,83.54
2017-11-16T10:19:15.054Z,83.47
2017-11-16T10:20:18.937Z,83.85
2017-11-16T10:21:22.708Z,84.62
2017-11-16T10:22:26.918Z,84.84
2017-11-16T10:23:30.771Z,84.90
2017-11-16T10:24:34.716Z,84.71
2017-11-16T10:25:38.562Z,84.18
2017-11-16T10:26:42.551Z,84.07
2017-11-16T10:27:46.399Z,83.35
2017-11-16T10:28:50.527Z,83.44
2017-11-16T10:29:54.598Z,83.60
2017-11-16T10:30:58.418Z,83.75
2017-11-16T10:32:02.594Z,83.40
2017-11-16T10:33:06.435Z,84.40
2017-11-16T10:34:10.413Z,85.11
2017-11-16T10:35:14.695Z,85.12
2017-11-16T10:36:18.548Z,84.59
2017-11-16T10:37:22.346Z,83.86
2017-11-16T10:38:26.150Z,83.81
2017-11-16T10:39:30.146Z,83.59
2017-11-16T10:40:34.101Z,82.92
2017-11-16T10:41:38.538Z,82.32
2017-11-16T10:42:42.345Z,82.15
2017-11-16T10:43:46.403Z,81.87
2017-11-16T10:44:50.236Z,81.23
2017-11-16T10:45:54.176Z,80.62
2017-11-16T10:46:58.072Z,81.97
2017-11-16T10:48:02.241Z,82.99
2017-11-16T10:49:06.069Z,83.94
2017-11-16T10:50:09.897Z,85.19
2017-11-16T10:51:13.703Z,85.29
2017-11-16T10:52:17.616Z,85.08
2017-11-16T10:53:21.474Z,85.56
2017-11-16T10:54:25.621Z,85.97
2017-11-16T10:55:29.468Z,85.88
2017-11-16T10:56:33.274Z,86.19
2017-11-16T10:57:37.122Z,86.14
2017-11-16T10:58:51.770Z,85.10
2017-11-16T11:15:20.094Z,90.49
2017-11-16T11:16:24.579Z,89.47
2017-11-16T11:17:28.479Z,88.73
2017-11-16T11:18:32.324Z,86.86
2017-11-16T11:19:41.238Z,86.37
2017-11-16T11:20:46.433Z,86.35
2017-11-16T11:21:51.255Z,85.68
2017-11-16T11:22:57.621Z,85.64
2017-11-16T11:24:02.316Z,85.85
2017-11-16T11:25:07.213Z,86.12
2017-11-16T11:26:11.476Z,85.74
2017-11-16T11:27:15.358Z,85.44
2017-11-16T11:28:19.119Z,86.02
2017-11-16T11:29:22.966Z,86.22
2017-11-16T11:30:26.934Z,86.00
2017-11-16T11:31:30.778Z,85.86
2017-11-16T11:32:35.062Z,85.99
2017-11-16T11:33:38.937Z,86.11
2017-11-16T11:34:42.816Z,85.44
2017-11-16T11:35:46.660Z,85.02
2017-11-16T11:36:50.533Z,85.63
2017-11-16T11:37:54.365Z,86.08
2017-11-16T11:38:58.917Z,86.36
2017-11-16T11:40:02.914Z,85.09
2017-11-16T11:41:06.724Z,85.25
2017-11-16T11:42:10.533Z,84.42
2017-11-16T11:43:14.431Z,84.09
2017-11-16T11:44:18.264Z,84.11
2017-11-16T11:45:22.573Z,84.23
2017-11-16T11:46:26.546Z,83.62
2017-11-16T11:47:30.443Z,83.52
2017-11-16T11:48:34.243Z,82.19
2017-11-16T11:49:38.090Z,82.48
2017-11-16T11:50:42.552Z,82.75
2017-11-16T11:51:46.700Z,82.96
2017-11-16T11:52:50.667Z,83.58
2017-11-16T11:53:54.640Z,84.30
2017-11-16T11:54:58.448Z,84.25
2017-11-16T11:56:02.303Z,83.22
2017-11-16T11:57:06.168Z,83.37
2017-11-16T11:58:10.925Z,83.26
2017-11-16T11:59:14.733Z,83.06
2017-11-16T12:00:18.854Z,82.57
2017-11-16T12:01:23.399Z,81.25
2017-11-16T12:02:28.219Z,80.61
2017-11-16T12:03:33.110Z,79.49
2017-11-16T12:04:37.664Z,79.91
2017-11-16T12:05:41.617Z,79.75
2017-11-16T12:06:47.603Z,79.54
2017-11-16T12:07:53.991Z,79.35
2017-11-16T12:08:57.731Z,79.53
2017-11-16T12:10:03.242Z,79.43
2017-11-16T12:11:07.958Z,79.52
2017-11-16T12:12:11.748Z,79.24
2017-11-16T12:13:16.300Z,79.25
2017-11-16T12:14:20.114Z,79.27
2017-11-16T12:15:23.921Z,79.80
2017-11-16T12:16:28.074Z,80.50
2017-11-16T12:17:32.385Z,80.89
2017-11-16T12:18:36.769Z,81.08
2017-11-16T12:19:40.626Z,80.83
2017-11-16T12:20:44.902Z,80.68
2017-11-16T12:21:48.592Z,80.20
2017-11-16T12:22:52.280Z,79.51
2017-11-16T12:23:56.980Z,78.71
2017-11-16T12:25:00.670Z,77.97
2017-11-16T12:26:04.430Z,77.65
2017-11-16T12:27:08.269Z,77.37
2017-11-16T12:28:12.220Z,77.01
2017-11-16T12:29:16.109Z,76.25
2017-11-16T12:30:20.424Z,75.42
2017-11-16T12:31:24.293Z,75.44
2017-11-16T12:32:28.155Z,76.26
2017-11-16T12:33:32.043Z,77.93
2017-11-16T12:34:35.897Z,78.12
2017-11-16T12:35:39.851Z,77.79
2017-11-16T12:36:43.974Z,76.85
2017-11-16T12:37:47.933Z,75.82
2017-11-16T12:38:52.902Z,76.05
2017-11-16T12:39:56.774Z,76.00
2017-11-16T12:41:00.647Z,76.10
2017-11-16T12:42:04.536Z,75.28
2017-11-16T12:43:08.843Z,74.55
2017-11-16T12:44:13.280Z,74.69
2017-11-16T12:45:17.137Z,74.69
2017-11-16T12:46:20.880Z,74.60
2017-11-16T12:47:25.374Z,74.29
2017-11-16T12:48:29.061Z,74.76
2017-11-16T12:49:33.112Z,74.44
2017-11-16T12:50:37.628Z,73.88
2017-11-16T12:51:41.779Z,73.24
2017-11-16T12:52:45.955Z,73.44
2017-11-16T12:53:49.840Z,73.98
2017-11-16T12:54:54.116Z,74.06
2017-11-16T12:55:57.984Z,73.68
2017-11-16T12:57:01.809Z,73.33
2017-11-16T12:58:05.624Z,73.51
2017-11-16T12:59:09.535Z,74.02
2017-11-16T13:00:13.339Z,72.93
2017-11-16T13:01:19.220Z,72.77
2017-11-16T13:02:23.360Z,72.72
2017-11-16T13:03:27.264Z,72.51
2017-11-16T13:04:31.998Z,73.15
2017-11-16T13:05:35.790Z,74.12
2017-11-16T13:06:39.590Z,74.14
2017-11-16T13:07:43.824Z,73.83
2017-11-16T13:08:47.780Z,74.67
2017-11-16T13:09:51.600Z,74.22
2017-11-16T13:10:55.920Z,73.75
2017-11-16T13:11:59.767Z,73.82
2017-11-16T13:13:03.626Z,74.50
2017-11-16T13:14:07.842Z,74.80
2017-11-16T13:15:11.720Z,74.77
2017-11-16T13:16:15.567Z,74.30
2017-11-16T13:17:19.411Z,75.06
2017-11-16T13:18:23.338Z,74.75
2017-11-16T13:19:27.471Z,74.33
2017-11-16T13:20:31.833Z,74.26
2017-11-16T13:21:35.678Z,74.43
2017-11-16T13:22:39.760Z,74.97
2017-11-16T13:23:43.562Z,75.12
2017-11-16T13:24:47.437Z,74.94
2017-11-16T13:25:51.679Z,74.84
2017-11-16T13:26:55.509Z,75.50
2017-11-16T13:27:59.232Z,75.63
2017-11-16T13:29:03.016Z,75.56
2017-11-16T13:30:06.936Z,75.12
2017-11-16T13:31:10.794Z,74.51
2017-11-16T13:32:14.609Z,73.90
2017-11-16T13:33:18.480Z,73.73
2017-11-16T13:34:22.341Z,73.86
2017-11-16T13:35:26.180Z,73.43
2017-11-16T13:36:29.931Z,72.90
2017-11-16T13:37:33.900Z,72.96
2017-11-16T13:38:37.632Z,73.17
2017-11-16T13:39:41.342Z,73.35
2017-11-16T13:40:45.154Z,72.97
2017-11-16T13:41:48.909Z,76.62
2017-11-16T13:42:52.671Z,77.85
2017-11-16T13:43:56.826Z,77.45
2017-11-16T13:45:03.739Z,77.19
2017-11-16T13:46:07.607Z,75.81
2017-11-16T13:47:11.390Z,75.45
2017-11-16T13:48:15.195Z,75.99
2017-11-16T13:49:19.013Z,76.73
2017-11-16T13:50:23.118Z,77.24
2017-11-16T13:51:27.053Z,77.85
2017-11-16T13:52:30.850Z,78.16
2017-11-16T13:53:35.064Z,78.14
2017-11-16T13:54:38.895Z,77.57
2017-11-16T13:55:42.786Z,76.19
2017-11-16T13:56:47.378Z,75.87
2017-11-16T14:16:23.623Z,82.45
2017-11-16T14:17:27.375Z,81.30
2017-11-16T14:18:31.231Z,79.56
2017-11-16T14:19:43.443Z,79.25
2017-11-16T14:20:47.543Z,79.80
2017-11-16T14:21:51.376Z,78.68
2017-11-16T14:22:55.496Z,78.98
2017-11-16T14:23:59.368Z,78.70
2017-11-16T14:25:03.167Z,78.52
2017-11-16T14:26:06.990Z,77.67
2017-11-16T14:27:10.916Z,76.75
2017-11-16T14:28:16.156Z,76.17
2017-11-16T14:29:20.388Z,75.92
2017-11-16T14:30:24.187Z,75.12
2017-11-16T14:31:27.945Z,75.09
2017-11-16T14:32:31.724Z,74.93
2017-11-16T14:33:35.499Z,75.20
2017-11-16T14:34:39.290Z,75.33
2017-11-16T14:35:43.487Z,75.01
2017-11-16T14:36:47.870Z,74.91
2017-11-16T14:37:51.647Z,75.33
2017-11-16T14:38:55.487Z,77.00
2017-11-16T14:39:59.190Z,77.24
2017-11-16T14:41:02.955Z,76.64
2017-11-16T14:42:07.138Z,75.78
2017-11-16T14:43:10.876Z,75.97
2017-11-16T14:44:14.618Z,76.70
2017-11-16T14:45:18.435Z,77.59
2017-11-16T14:46:22.206Z,77.50
2017-11-16T14:47:25.974Z,78.08
2017-11-16T14:48:30.247Z,78.60
2017-11-16T14:49:34.027Z,78.05
2017-11-16T14:50:37.760Z,77.78
2017-11-16T14:51:41.546Z,77.86
2017-11-16T14:52:45.255Z,77.39
2017-11-16T14:53:48.934Z,78.36
2017-11-16T14:54:53.177Z,77.38
2017-11-16T14:55:57.020Z,77.44
2017-11-16T14:57:00.825Z,78.44
2017-11-16T14:58:04.604Z,78.10
2017-11-16T14:59:08.344Z,78.35
2017-11-16T15:00:12.094Z,78.51
2017-11-16T15:01:16.167Z,79.97
2017-11-16T15:02:19.908Z,80.07